Terminal Aerodrome Forecast
Issued by NWS

Home | Current Version | Previous Version | Text Only | Print | Product List | Glossary On
Versions: 1 2 3 4 5 6 7 8 9 10 11 12 13 14 15 16 17 18 19
492
FTUS43 KILX 220703 AAA
TAFBMI
TAF AMD
KBMI 220703Z 2207/2306 09009KT P6SM FEW050 BKN300
     FM220800 18009KT P6SM VCTS SCT050CB BKN300 WS020/24040KT
     FM221500 23010KT P6SM SCT050 BKN300
     FM222100 27010KT P6SM FEW050 SCT300=

USA.gov is the U.S. government's official web portal to all federal, state and local government web resources and services.